Time;durP1;ratioP1;P1;durP2;ratioP2;P2;SDS_P1;SDS_P2;PMS_P1;PMS_P2;Temp;Humidity;BMP_temperature;BMP_pressure;BME280_temperature;BME280_humidity;BME280_pressure;Samples;Min_cycle;Max_cycle;Signal;HPM_P1;HPM_P2
2024/02/05 00:00:50;;;;;;;1.50;0.40;;;;;;;3.27;100.00;98771.04;104664;1256;59956;-58
2024/02/05 00:03:17;;;;;;;1.80;0.40;;;;;;;3.29;100.00;98763.89;105088;1258;71754;-55
2024/02/05 00:05:45;;;;;;;2.40;0.70;;;;;;;3.30;100.00;98758.90;105601;1264;66910;-56
2024/02/05 00:08:12;;;;;;;1.90;0.40;;;;;;;3.31;100.00;98762.20;104704;1257;71512;-57
2024/02/05 00:10:40;;;;;;;1.80;0.40;;;;;;;3.33;100.00;98758.21;104667;1257;59910;-56
2024/02/05 00:13:07;;;;;;;1.20;0.30;;;;;;;3.34;100.00;98757.14;104524;1260;59599;-58
2024/02/05 00:15:34;;;;;;;1.10;0.30;;;;;;;3.33;100.00;98741.36;105630;1258;72987;-56
2024/02/05 00:18:02;;;;;;;0.80;0.30;;;;;;;3.33;100.00;98745.45;104753;1257;66703;-56
2024/02/05 00:20:29;;;;;;;1.00;0.40;;;;;;;3.33;100.00;98737.30;104540;1259;72087;-59
2024/02/05 00:22:56;;;;;;;1.90;0.40;;;;;;;3.32;100.00;98728.48;104481;1262;59772;-60
2024/02/05 00:25:24;;;;;;;1.60;0.40;;;;;;;3.32;100.00;98715.69;104438;1257;60085;-57
2024/02/05 00:27:52;;;;;;;1.10;0.30;;;;;;;3.33;100.00;98720.64;104616;1257;73027;-57
2024/02/05 00:30:20;;;;;;;2.10;0.40;;;;;;;3.34;100.00;98722.92;106088;1262;65235;-58
2024/02/05 00:32:47;;;;;;;0.90;0.40;;;;;;;3.34;100.00;98720.77;104739;1257;70605;-57
2024/02/05 00:35:14;;;;;;;1.60;0.40;;;;;;;3.35;100.00;98714.88;105227;1261;59662;-58
2024/02/05 00:37:42;;;;;;;0.90;0.50;;;;;;;3.36;100.00;98713.61;105136;1257;59756;-57
2024/02/05 00:40:09;;;;;;;0.90;0.40;;;;;;;3.37;100.00;98711.65;104781;1258;71817;-57
2024/02/05 00:42:38;;;;;;;4.50;0.40;;;;;;;3.37;100.00;98710.20;105203;1263;65893;-60
2024/02/05 00:45:07;;;;;;;2.10;0.40;;;;;;;3.37;100.00;98699.41;104513;1260;71396;-57
2024/02/05 00:47:34;;;;;;;1.50;0.40;;;;;;;3.35;100.00;98693.96;107143;1258;59680;-58
2024/02/05 00:50:01;;;;;;;2.30;0.50;;;;;;;3.35;100.00;98690.61;104914;1263;59620;-57
2024/02/05 00:52:29;;;;;;;1.90;0.40;;;;;;;3.34;100.00;98685.50;104499;1257;73051;-59
2024/02/05 00:54:57;;;;;;;1.90;0.50;;;;;;;3.34;100.00;98679.10;104495;1258;65690;-58
2024/02/05 00:57:29;;;;;;;1.70;0.40;;;;;;;3.34;100.00;98672.18;104582;1262;71807;-57
2024/02/05 00:59:57;;;;;;;2.30;0.30;;;;;;;3.35;100.00;98664.17;108718;1257;59673;-58
2024/02/05 01:02:24;;;;;;;3.80;0.60;;;;;;;3.38;100.00;98656.48;108792;1257;60084;-59
2024/02/05 01:04:51;;;;;;;1.20;0.40;;;;;;;3.41;100.00;98650.14;108766;1259;71869;-60
2024/02/05 01:07:19;;;;;;;2.90;0.50;;;;;;;3.43;100.00;98643.13;106653;1259;66881;-57
2024/02/05 01:09:46;;;;;;;2.40;0.90;;;;;;;3.45;100.00;98640.96;108730;1260;70566;-59
2024/02/05 01:12:14;;;;;;;1.70;0.40;;;;;;;3.46;100.00;98641.63;108858;1259;60799;-58
2024/02/05 01:14:41;;;;;;;2.90;0.50;;;;;;;3.48;100.00;98634.47;109078;1253;60383;-60
2024/02/05 01:17:08;;;;;;;1.30;0.40;;;;;;;3.50;100.00;98637.56;109004;1253;72045;-59
2024/02/05 01:19:36;;;;;;;0.70;0.40;;;;;;;3.52;100.00;98632.34;109042;1254;66792;-59
2024/02/05 01:22:04;;;;;;;1.10;0.40;;;;;;;3.54;100.00;98626.60;109130;1254;73091;-58
2024/02/05 01:24:31;;;;;;;1.50;0.40;;;;;;;3.57;100.00;98631.45;109138;1253;59636;-58
2024/02/05 01:26:58;;;;;;;2.10;0.40;;;;;;;3.59;100.00;98631.87;107002;1256;58831;-57
2024/02/05 01:29:27;;;;;;;2.20;0.60;;;;;;;3.63;100.00;98617.92;105038;1254;73129;-59
2024/02/05 01:31:54;;;;;;;1.10;0.40;;;;;;;3.66;100.00;98618.30;104752;1256;66883;-53
2024/02/05 01:34:21;;;;;;;1.40;0.50;;;;;;;3.69;100.00;98614.66;104838;1257;73140;-56
2024/02/05 01:36:49;;;;;;;0.90;0.40;;;;;;;3.70;100.00;98613.35;106496;1254;59797;-59
2024/02/05 01:39:18;;;;;;;1.90;0.40;;;;;;;3.73;100.00;98622.48;104896;1254;59929;-56
2024/02/05 01:41:45;;;;;;;3.50;0.60;;;;;;;3.74;100.00;98614.84;104880;1258;73134;-58
2024/02/05 01:44:13;;;;;;;2.90;0.40;;;;;;;3.74;100.00;98612.48;105626;1254;66187;-57
2024/02/05 01:46:40;;;;;;;2.00;0.40;;;;;;;3.77;100.00;98607.24;104801;1254;70480;-58
2024/02/05 01:49:07;;;;;;;1.60;0.50;;;;;;;3.79;100.00;98603.97;105105;1254;59783;-58
2024/02/05 01:51:38;;;;;;;2.00;0.40;;;;;;;3.80;100.00;98602.87;105931;1256;60147;-55
2024/02/05 01:54:06;;;;;;;0.80;0.40;;;;;;;3.81;100.00;98605.15;105245;1254;71484;-57
2024/02/05 01:56:33;;;;;;;3.20;0.40;;;;;;;3.83;100.00;98601.37;104842;1254;67469;-58
2024/02/05 01:59:00;;;;;;;3.50;0.40;;;;;;;3.84;100.00;98598.65;104923;1260;72962;-56
2024/02/05 02:01:28;;;;;;;2.20;0.50;;;;;;;3.85;100.00;98592.73;104991;1257;61900;-57
2024/02/05 02:03:56;;;;;;;2.60;0.50;;;;;;;3.86;100.00;98590.20;104978;1254;59995;-55
2024/02/05 02:06:24;;;;;;;2.20;0.40;;;;;;;3.89;100.00;98582.99;107833;1254;72983;-55
2024/02/05 02:08:51;;;;;;;1.30;0.40;;;;;;;3.92;100.00;98582.89;105475;1254;66922;-57
2024/02/05 02:11:19;;;;;;;1.60;0.40;;;;;;;3.95;100.00;98581.70;104968;1259;72728;-55
2024/02/05 02:13:46;;;;;;;0.90;0.50;;;;;;;3.96;100.00;98581.27;104809;1254;60939;-59
2024/02/05 02:16:19;;;;;;;1.60;0.40;;;;;;;3.99;100.00;98577.28;104991;1253;59946;-59
2024/02/05 02:18:47;;;;;;;1.00;0.30;;;;;;;4.00;100.00;98571.17;104933;1254;71819;-59
2024/02/05 02:21:15;;;;;;;2.60;0.50;;;;;;;4.03;100.00;98559.86;105049;1257;65359;-58
2024/02/05 02:23:43;;;;;;;2.80;0.50;;;;;;;4.05;100.00;98556.95;105200;1254;72429;-57
2024/02/05 02:26:10;;;;;;;0.90;0.50;;;;;;;4.07;100.00;98553.14;106722;1259;60032;-57
2024/02/05 02:28:38;;;;;;;2.10;0.60;;;;;;;4.09;100.00;98552.33;105168;1259;60250;-57
2024/02/05 02:31:05;;;;;;;2.50;0.40;;;;;;;4.11;100.00;98547.46;105149;1254;71728;-59
2024/02/05 02:34:07;;;;;;;3.60;0.60;;;;;;;4.12;100.00;98556.50;105634;1252;65789;-59
2024/02/05 02:36:40;;;;;;;1.80;0.40;;;;;;;4.12;100.00;98561.83;105340;1254;72682;-57
2024/02/05 02:39:19;;;;;;;2.60;0.50;;;;;;;4.12;100.00;98553.84;105011;1256;60537;-57
2024/02/05 02:41:46;;;;;;;1.70;0.50;;;;;;;4.10;100.00;98550.17;105533;1259;60529;-57
2024/02/05 02:44:14;;;;;;;1.50;0.40;;;;;;;4.09;100.00;98552.35;104887;1260;74343;-54
2024/02/05 02:46:41;;;;;;;1.70;0.70;;;;;;;4.07;100.00;98545.67;104977;1254;67473;-55
2024/02/05 02:49:08;;;;;;;2.00;0.40;;;;;;;4.07;100.00;98537.71;105040;1261;70460;-56
2024/02/05 02:51:36;;;;;;;1.60;0.50;;;;;;;4.08;100.00;98534.98;105430;1254;62901;-54
2024/02/05 02:54:04;;;;;;;2.10;0.60;;;;;;;4.10;100.00;98537.91;105081;1259;60386;-57
2024/02/05 02:56:31;;;;;;;3.90;0.70;;;;;;;4.11;100.00;98528.80;105002;1259;75343;-57
2024/02/05 02:58:58;;;;;;;1.50;0.60;;;;;;;4.13;100.00;98523.95;105000;1257;66179;-55
2024/02/05 03:01:25;;;;;;;3.10;0.50;;;;;;;4.15;100.00;98529.40;105213;1259;71445;-55
2024/02/05 03:03:53;;;;;;;2.70;0.60;;;;;;;4.16;100.00;98524.35;104931;1254;60878;-55
2024/02/05 03:06:20;;;;;;;1.10;0.50;;;;;;;4.18;100.00;98521.05;105017;1259;60361;-56
2024/02/05 03:08:48;;;;;;;2.90;0.50;;;;;;;4.20;100.00;98512.80;105171;1254;73872;-57
2024/02/05 03:11:15;;;;;;;2.90;0.70;;;;;;;4.22;100.00;98507.06;104798;1258;65010;-57
2024/02/05 03:13:43;;;;;;;1.70;0.40;;;;;;;4.23;100.00;98509.52;105015;1256;71215;-57
2024/02/05 03:16:10;;;;;;;4.40;0.80;;;;;;;4.22;100.00;98494.09;104844;1254;60554;-57
2024/02/05 03:18:37;;;;;;;1.00;0.40;;;;;;;4.22;100.00;98500.86;107379;1254;60441;-56
2024/02/05 03:21:05;;;;;;;2.70;0.40;;;;;;;4.22;100.00;98491.11;105005;1254;75887;-56
2024/02/05 03:23:32;;;;;;;1.90;0.50;;;;;;;4.22;100.00;98490.02;104888;1258;66975;-57
2024/02/05 03:26:00;;;;;;;1.70;0.40;;;;;;;4.23;100.00;98476.86;105190;1254;72669;-56
2024/02/05 03:28:28;;;;;;;1.80;0.50;;;;;;;4.25;100.00;98477.64;104839;1256;60922;-57
2024/02/05 03:30:56;;;;;;;2.30;0.40;;;;;;;4.27;100.00;98470.98;105419;1259;60400;-57
2024/02/05 03:33:24;;;;;;;1.40;0.40;;;;;;;4.28;100.00;98477.13;105574;1257;72995;-58
2024/02/05 03:35:51;;;;;;;1.80;0.60;;;;;;;4.31;100.00;98463.90;104976;1257;65083;-56
2024/02/05 03:38:18;;;;;;;1.80;0.70;;;;;;;4.32;100.00;98459.94;104795;1256;71248;-57
2024/02/05 03:40:46;;;;;;;1.90;0.70;;;;;;;4.33;100.00;98454.73;105008;1259;60467;-56
2024/02/05 03:43:13;;;;;;;2.60;0.50;;;;;;;4.34;100.00;98451.49;105939;1256;60552;-57
2024/02/05 03:45:41;;;;;;;3.30;0.70;;;;;;;4.34;100.00;98445.42;104836;1256;73971;-56
2024/02/05 03:48:08;;;;;;;1.40;0.40;;;;;;;4.34;100.00;98454.36;107471;1259;66899;-57
2024/02/05 03:50:36;;;;;;;3.70;0.50;;;;;;;4.33;100.00;98492.39;108927;1257;70626;-58
2024/02/05 03:53:04;;;;;;;0.80;0.30;;;;;;;4.33;100.00;98558.29;109026;1254;59597;-57
2024/02/05 03:55:31;;;;;;;0.10;0.10;;;;;;;4.31;100.00;98582.89;108905;1254;60116;-56
2024/02/05 03:58:00;;;;;;;0.10;0.00;;;;;;;4.08;100.00;98581.13;108708;1254;73928;-57
2024/02/05 04:00:28;;;;;;;0.10;0.10;;;;;;;3.78;100.00;98577.38;108904;1253;65516;-56
2024/02/05 04:02:56;;;;;;;0.10;0.00;;;;;;;3.52;100.00;98575.23;108896;1256;72721;-56
2024/02/05 04:05:28;;;;;;;2.40;0.30;;;;;;;3.33;100.00;98579.85;108843;1255;64385;-57
2024/02/05 04:07:55;;;;;;;1.80;0.30;;;;;;;3.19;100.00;98557.53;108900;1254;60364;-57
2024/02/05 04:10:22;;;;;;;0.40;0.10;;;;;;;3.08;100.00;98544.64;106193;1257;73894;-52
2024/02/05 04:12:50;;;;;;;0.40;0.10;;;;;;;3.01;100.00;98540.27;105027;1256;65777;-54
2024/02/05 04:15:17;;;;;;;1.30;0.10;;;;;;;2.95;100.00;98532.52;105022;1255;71480;-55
2024/02/05 04:17:45;;;;;;;0.20;0.10;;;;;;;2.89;100.00;98538.77;104916;1254;61551;-52
2024/02/05 04:20:12;;;;;;;0.10;0.00;;;;;;;2.87;100.00;98535.69;105080;1259;60955;-54
2024/02/05 04:22:40;;;;;;;0.20;0.10;;;;;;;2.86;100.00;98529.88;104785;1259;72845;-55
2024/02/05 04:25:08;;;;;;;0.10;0.00;;;;;;;2.85;100.00;98516.60;105135;1257;67051;-56
2024/02/05 04:27:36;;;;;;;0.30;0.10;;;;;;;2.86;100.00;98519.05;108936;1255;71257;-58
2024/02/05 04:30:04;;;;;;;0.20;0.10;;;;;;;2.87;100.00;98511.05;106723;1257;60901;-57
2024/02/05 04:32:33;;;;;;;0.60;0.20;;;;;;;2.88;100.00;98504.29;104983;1254;63397;-57
2024/02/05 04:35:01;;;;;;;0.60;0.20;;;;;;;2.89;100.00;98494.65;105069;1259;73892;-54
2024/02/05 04:37:28;;;;;;;0.60;0.60;;;;;;;2.90;100.00;98506.84;105235;1254;67207;-55
2024/02/05 04:39:56;;;;;;;0.40;0.20;;;;;;;2.93;100.00;98500.90;104936;1254;71443;-57
2024/02/05 04:42:23;;;;;;;0.50;0.20;;;;;;;2.93;100.00;98507.63;107375;1254;60418;-56
2024/02/05 04:44:51;;;;;;;0.40;0.20;;;;;;;2.94;100.00;98505.80;104896;1254;62310;-56
2024/02/05 04:47:18;;;;;;;0.30;0.20;;;;;;;2.97;100.00;98512.28;105016;1259;73824;-56
2024/02/05 04:49:47;;;;;;;0.40;0.10;;;;;;;2.99;100.00;98504.02;105130;1254;65627;-55
2024/02/05 04:52:14;;;;;;;1.00;0.20;;;;;;;3.02;100.00;98489.39;104846;1259;71486;-53
2024/02/05 04:54:42;;;;;;;0.90;0.20;;;;;;;3.05;100.00;98493.73;105003;1254;60876;-56
2024/02/05 04:57:09;;;;;;;0.70;0.20;;;;;;;3.07;100.00;98502.70;105441;1258;60523;-55
2024/02/05 04:59:37;;;;;;;0.50;0.20;;;;;;;3.07;100.00;98500.73;105004;1259;74118;-53
2024/02/05 05:02:04;;;;;;;0.50;0.20;;;;;;;3.06;100.00;98486.60;104947;1258;66739;-54
2024/02/05 05:04:33;;;;;;;0.40;0.20;;;;;;;3.07;100.00;98478.20;105520;1259;72652;-55
2024/02/05 05:07:00;;;;;;;0.50;0.30;;;;;;;3.08;100.00;98480.83;105086;1254;60536;-55
2024/02/05 05:09:28;;;;;;;1.20;0.30;;;;;;;3.09;100.00;98488.96;104893;1254;60725;-55
2024/02/05 05:11:55;;;;;;;1.00;0.30;;;;;;;3.09;100.00;98488.96;104870;1254;72567;-53
2024/02/05 05:14:22;;;;;;;2.20;0.40;;;;;;;3.10;100.00;98489.80;104717;1259;67011;-56
2024/02/05 05:16:50;;;;;;;0.70;0.40;;;;;;;3.12;100.00;98490.27;104882;1257;71476;-56
2024/02/05 05:19:17;;;;;;;1.00;0.30;;;;;;;3.13;100.00;98489.34;104908;1254;60434;-55
2024/02/05 05:21:45;;;;;;;0.50;0.30;;;;;;;3.13;100.00;98494.30;105049;1259;60556;-55
2024/02/05 05:24:13;;;;;;;0.60;0.30;;;;;;;3.14;100.00;98502.61;104954;1259;74061;-56
2024/02/05 05:26:40;;;;;;;1.00;0.20;;;;;;;3.12;100.00;98504.08;105009;1259;68635;-56
2024/02/05 05:29:07;;;;;;;1.40;0.40;;;;;;;3.09;100.00;98497.45;104870;1255;71897;-55
2024/02/05 05:31:35;;;;;;;2.80;0.50;;;;;;;3.04;100.00;98487.90;104657;1257;60868;-56
2024/02/05 05:34:05;;;;;;;0.60;0.30;;;;;;;2.98;100.00;98483.15;105129;1259;62506;-56
2024/02/05 05:36:34;;;;;;;0.60;0.30;;;;;;;2.94;100.00;98480.83;104881;1257;73950;-55
2024/02/05 05:39:02;;;;;;;2.90;0.30;;;;;;;2.91;100.00;98482.88;105039;1256;66914;-57
2024/02/05 05:41:29;;;;;;;0.60;0.30;;;;;;;2.91;100.00;98486.25;104674;1257;73055;-56
2024/02/05 05:43:57;;;;;;;0.30;0.20;;;;;;;2.91;100.00;98479.86;104608;1259;60957;-57
2024/02/05 05:46:24;;;;;;;0.40;0.30;;;;;;;2.91;100.00;98473.86;104865;1259;60677;-55
2024/02/05 05:48:51;;;;;;;0.30;0.20;;;;;;;2.90;100.00;98471.21;104791;1259;74304;-56
2024/02/05 05:51:19;;;;;;;0.20;0.20;;;;;;;2.90;100.00;98471.23;104888;1257;65936;-57
2024/02/05 05:53:46;;;;;;;0.30;0.10;;;;;;;2.89;100.00;98459.39;104798;1255;71445;-54
2024/02/05 05:56:13;;;;;;;0.20;0.10;;;;;;;2.88;100.00;98452.70;104809;1257;60610;-55
2024/02/05 05:58:41;;;;;;;0.30;0.10;;;;;;;2.87;100.00;98451.35;104705;1261;60392;-57
2024/02/05 06:01:08;;;;;;;0.20;0.10;;;;;;;2.85;100.00;98452.81;105028;1254;72681;-54
2024/02/05 06:03:40;;;;;;;0.30;0.10;;;;;;;2.84;100.00;98453.04;105377;1259;66770;-58
2024/02/05 06:06:08;;;;;;;0.10;0.10;;;;;;;2.84;100.00;98457.84;104786;1259;73082;-56
2024/02/05 06:08:35;;;;;;;0.20;0.00;;;;;;;2.81;100.00;98449.98;104818;1256;60527;-55
2024/02/05 06:11:03;;;;;;;0.10;0.00;;;;;;;2.77;100.00;98447.99;104814;1257;60473;-57
2024/02/05 06:13:31;;;;;;;0.30;0.10;;;;;;;2.74;100.00;98447.38;104884;1255;72155;-57
2024/02/05 06:15:58;;;;;;;0.20;0.10;;;;;;;2.71;100.00;98445.23;105306;1257;67410;-58
2024/02/05 06:18:26;;;;;;;0.10;0.00;;;;;;;2.64;100.00;98444.41;104940;1255;71468;-55
2024/02/05 06:20:53;;;;;;;0.10;0.00;;;;;;;2.55;100.00;98437.64;104746;1258;60472;-58
2024/02/05 06:23:20;;;;;;;0.10;0.00;;;;;;;2.48;100.00;98434.38;104783;1257;60364;-56
2024/02/05 06:25:48;;;;;;;0.20;0.00;;;;;;;2.40;100.00;98437.35;104729;1259;73875;-57
2024/02/05 06:28:16;;;;;;;0.10;0.00;;;;;;;2.33;100.00;98430.51;104631;1257;67899;-54
2024/02/05 06:30:49;;;;;;;0.20;0.00;;;;;;;2.27;100.00;98427.34;104682;1257;72928;-55
2024/02/05 06:33:17;;;;;;;0.10;0.10;;;;;;;2.21;100.00;98421.02;104952;1256;60671;-55
2024/02/05 06:35:45;;;;;;;0.10;0.10;;;;;;;2.17;100.00;98416.73;109010;1255;60298;-57
2024/02/05 06:38:12;;;;;;;0.10;0.00;;;;;;;2.15;100.00;98414.33;105704;1257;73879;-55
2024/02/05 06:40:40;;;;;;;0.10;0.10;;;;;;;2.13;100.00;98416.87;104626;1259;66996;-55
2024/02/05 06:43:07;;;;;;;0.10;0.10;;;;;;;2.12;100.00;98416.38;104770;1257;73235;-56
2024/02/05 06:45:38;;;;;;;0.20;0.10;;;;;;;2.11;100.00;98408.46;108907;1254;59866;-57
2024/02/05 06:48:05;;;;;;;0.50;0.20;;;;;;;2.09;100.00;98416.70;108949;1254;60588;-57
2024/02/05 06:50:33;;;;;;;0.30;0.20;;;;;;;2.04;100.00;98415.77;108836;1254;74130;-57
2024/02/05 06:53:00;;;;;;;0.50;0.30;;;;;;;1.99;100.00;98413.14;108987;1254;66895;-57
2024/02/05 06:55:28;;;;;;;0.90;0.30;;;;;;;1.96;100.00;98403.34;108997;1255;74592;-58
2024/02/05 06:57:55;;;;;;;1.10;0.40;;;;;;;1.92;100.00;98402.27;108968;1257;59823;-58
2024/02/05 07:00:22;;;;;;;0.60;0.30;;;;;;;1.89;100.00;98392.79;109041;1257;61224;-59
2024/02/05 07:02:50;;;;;;;0.60;0.30;;;;;;;1.86;100.00;98384.24;108864;1255;72649;-59
2024/02/05 07:05:18;;;;;;;0.60;0.30;;;;;;;1.84;100.00;98381.65;108867;1254;65512;-59
2024/02/05 07:07:46;;;;;;;0.40;0.20;;;;;;;1.82;100.00;98377.11;108890;1257;72458;-59
2024/02/05 07:10:13;;;;;;;0.30;0.20;;;;;;;1.84;100.00;98374.75;108830;1254;59691;-59
2024/02/05 07:12:40;;;;;;;0.80;0.30;;;;;;;1.85;100.00;98372.08;108898;1255;58758;-59
2024/02/05 07:15:08;;;;;;;0.30;0.20;;;;;;;1.86;100.00;98371.33;108790;1256;72638;-59
2024/02/05 07:17:36;;;;;;;0.40;0.30;;;;;;;1.86;100.00;98370.80;108948;1256;67540;-59
2024/02/05 07:20:04;;;;;;;0.50;0.30;;;;;;;1.88;100.00;98369.48;108804;1257;71456;-59
2024/02/05 07:22:32;;;;;;;0.40;0.20;;;;;;;1.89;100.00;98367.31;108827;1257;60885;-59
2024/02/05 07:24:59;;;;;;;0.30;0.20;;;;;;;1.90;100.00;98366.75;108928;1255;60001;-59
2024/02/05 07:27:27;;;;;;;0.40;0.20;;;;;;;1.90;100.00;98362.66;108925;1254;73103;-59
2024/02/05 07:29:55;;;;;;;0.40;0.20;;;;;;;1.93;100.00;98364.35;105391;1254;67420;-58
2024/02/05 07:32:22;;;;;;;0.30;0.20;;;;;;;1.95;100.00;98369.42;104746;1259;72792;-58
2024/02/05 07:34:49;;;;;;;0.30;0.20;;;;;;;1.96;100.00;98369.17;104809;1259;60883;-58
2024/02/05 07:37:17;;;;;;;0.90;0.20;;;;;;;1.98;100.00;98372.11;104870;1255;60527;-58
2024/02/05 07:39:44;;;;;;;0.50;0.20;;;;;;;2.00;100.00;98372.95;105192;1254;73803;-58
2024/02/05 07:42:12;;;;;;;0.40;0.30;;;;;;;1.99;100.00;98373.50;104611;1259;67461;-57
2024/02/05 07:44:40;;;;;;;0.30;0.20;;;;;;;1.95;100.00;98377.23;104946;1259;70440;-59
2024/02/05 07:47:07;;;;;;;0.60;0.30;;;;;;;1.91;100.00;98375.73;104800;1255;60453;-57
2024/02/05 07:49:35;;;;;;;0.30;0.20;;;;;;;1.87;100.00;98361.88;104732;1260;60515;-58
2024/02/05 07:52:03;;;;;;;0.20;0.20;;;;;;;1.85;100.00;98357.91;105777;1259;73931;-58
2024/02/05 07:54:30;;;;;;;0.30;0.20;;;;;;;1.82;100.00;98356.77;104925;1254;69071;-58
2024/02/05 07:57:02;;;;;;;0.10;0.10;;;;;;;1.81;100.00;98360.69;104863;1257;73120;-57
2024/02/05 07:59:30;;;;;;;0.20;0.20;;;;;;;1.81;100.00;98348.33;104808;1259;61311;-58
2024/02/05 08:01:58;;;;;;;0.20;0.20;;;;;;;1.83;100.00;98356.56;104911;1254;60552;-58
2024/02/05 08:04:26;;;;;;;0.30;0.20;;;;;;;1.86;100.00;98359.13;106331;1255;74326;-58
2024/02/05 08:06:53;;;;;;;0.50;0.40;;;;;;;1.88;100.00;98349.68;105418;1259;65876;-58
2024/02/05 08:09:21;;;;;;;0.80;0.40;;;;;;;1.90;100.00;98346.58;104932;1258;73371;-57
2024/02/05 08:11:48;;;;;;;0.60;0.40;;;;;;;1.94;100.00;98345.05;105068;1259;60581;-57
2024/02/05 08:14:16;;;;;;;0.60;0.50;;;;;;;1.97;100.00;98349.70;104977;1254;60616;-59
2024/02/05 08:16:43;;;;;;;0.70;0.40;;;;;;;2.00;100.00;98353.12;105052;1260;73937;-57
2024/02/05 08:19:11;;;;;;;0.60;0.40;;;;;;;2.03;100.00;98352.33;104906;1260;65709;-56
2024/02/05 08:21:38;;;;;;;0.50;0.30;;;;;;;2.04;100.00;98353.84;105799;1259;72673;-56
2024/02/05 08:24:06;;;;;;;0.30;0.30;;;;;;;2.06;100.00;98351.14;105094;1260;61645;-56
2024/02/05 08:26:33;;;;;;;0.90;0.40;;;;;;;2.05;100.00;98359.82;105342;1259;60523;-58
2024/02/05 08:29:01;;;;;;;0.70;0.40;;;;;;;2.06;100.00;98354.52;105190;1256;73930;-56
2024/02/05 08:31:28;;;;;;;1.10;0.50;;;;;;;2.03;100.00;98354.61;105084;1257;67485;-55
2024/02/05 08:33:56;;;;;;;0.70;0.40;;;;;;;1.99;100.00;98355.28;105046;1257;71710;-57
2024/02/05 08:36:23;;;;;;;0.70;0.50;;;;;;;1.95;100.00;98349.63;104995;1257;60932;-56
2024/02/05 08:38:50;;;;;;;1.10;0.50;;;;;;;1.92;100.00;98348.99;104849;1255;60436;-57
2024/02/05 08:41:18;;;;;;;0.80;0.50;;;;;;;1.89;100.00;98348.73;105087;1254;72656;-58
2024/02/05 08:43:45;;;;;;;0.60;0.40;;;;;;;1.88;100.00;98342.40;105087;1259;66168;-58
2024/02/05 08:46:12;;;;;;;0.60;0.40;;;;;;;1.87;100.00;98332.91;105000;1259;71349;-58
2024/02/05 08:48:40;;;;;;;1.80;0.40;;;;;;;1.86;100.00;98323.20;104925;1260;60960;-59
2024/02/05 08:51:07;;;;;;;0.70;0.40;;;;;;;1.87;100.00;98327.41;104969;1257;60544;-59
2024/02/05 08:53:35;;;;;;;0.40;0.30;;;;;;;1.89;100.00;98320.77;105027;1259;72657;-58
2024/02/05 08:56:02;;;;;;;1.00;0.40;;;;;;;1.93;100.00;98323.69;104935;1259;68076;-57
2024/02/05 08:58:30;;;;;;;0.60;0.20;;;;;;;1.96;100.00;98318.44;104988;1259;71052;-54
2024/02/05 09:00:57;;;;;;;0.20;0.10;;;;;;;1.97;100.00;98310.77;104867;1257;60568;-60
2024/02/05 09:03:25;;;;;;;0.20;0.10;;;;;;;1.99;100.00;98314.96;105150;1257;60642;-59
2024/02/05 09:05:52;;;;;;;0.10;0.10;;;;;;;2.00;100.00;98312.63;104897;1259;73033;-58
2024/02/05 09:08:19;;;;;;;0.10;0.00;;;;;;;2.01;100.00;98300.55;105010;1259;66159;-59
2024/02/05 09:10:47;;;;;;;0.00;0.00;;;;;;;2.01;100.00;98291.00;105041;1269;73568;-57
2024/02/05 09:13:15;;;;;;;0.00;0.00;;;;;;;2.01;100.00;98278.80;104820;1256;60974;-58
2024/02/05 09:15:43;;;;;;;0.00;0.00;;;;;;;2.01;100.00;98277.39;104783;1257;60572;-56
2024/02/05 09:18:11;;;;;;;0.10;0.10;;;;;;;2.05;100.00;98279.17;104714;1257;73833;-54
2024/02/05 09:20:38;;;;;;;0.10;0.10;;;;;;;2.10;100.00;98290.47;104885;1259;65879;-58
2024/02/05 09:23:06;;;;;;;0.10;0.10;;;;;;;2.16;100.00;98305.46;104818;1256;72792;-59
2024/02/05 09:25:33;;;;;;;0.30;0.20;;;;;;;2.21;100.00;98297.86;104896;1259;61304;-58
2024/02/05 09:28:00;;;;;;;0.20;0.20;;;;;;;2.24;100.00;98300.04;104745;1255;60486;-58
2024/02/05 09:30:28;;;;;;;0.40;0.20;;;;;;;2.24;100.00;98293.29;104722;1257;72725;-59
2024/02/05 09:32:55;;;;;;;0.50;0.40;;;;;;;2.25;100.00;98299.47;104728;1259;67709;-58
2024/02/05 09:35:23;;;;;;;0.40;0.30;;;;;;;2.23;100.00;98305.52;104750;1259;70790;-57
2024/02/05 09:37:50;;;;;;;0.60;0.30;;;;;;;2.22;100.00;98311.42;105109;1259;60650;-55
2024/02/05 09:40:17;;;;;;;0.40;0.20;;;;;;;2.17;100.00;98310.54;104756;1259;60585;-57
2024/02/05 09:42:45;;;;;;;0.50;0.40;;;;;;;2.12;100.00;98308.96;104718;1257;72677;-59
2024/02/05 09:45:12;;;;;;;0.20;0.20;;;;;;;2.07;100.00;98305.09;104750;1263;68175;-56
2024/02/05 09:47:41;;;;;;;0.50;0.30;;;;;;;2.05;100.00;98301.80;104742;1262;71339;-58
2024/02/05 09:50:12;;;;;;;0.40;0.30;;;;;;;2.04;100.00;98297.74;104623;1260;60928;-58
2024/02/05 09:52:41;;;;;;;0.70;0.40;;;;;;;2.05;100.00;98295.97;104781;1262;60465;-56
2024/02/05 09:55:10;;;;;;;0.50;0.30;;;;;;;2.05;100.00;98291.52;105271;1263;73099;-58
2024/02/05 09:57:37;;;;;;;0.40;0.20;;;;;;;2.06;100.00;98290.80;104846;1261;66308;-58
2024/02/05 10:00:05;;;;;;;0.20;0.20;;;;;;;2.09;100.00;98283.09;104744;1262;72797;-56
2024/02/05 10:02:33;;;;;;;0.10;0.10;;;;;;;2.11;100.00;98268.31;104825;1257;60658;-59
2024/02/05 10:05:00;;;;;;;0.10;0.00;;;;;;;2.13;100.00;98264.15;104710;1257;60425;-58
2024/02/05 10:07:29;;;;;;;0.00;0.00;;;;;;;2.13;100.00;98246.09;105059;1255;73950;-58
2024/02/05 10:09:56;;;;;;;0.00;0.00;;;;;;;2.13;100.00;98245.92;104823;1262;65609;-58
2024/02/05 10:12:24;;;;;;;0.10;0.10;;;;;;;2.14;100.00;98259.68;104909;1260;71423;-57
2024/02/05 10:14:51;;;;;;;0.00;0.00;;;;;;;2.15;100.00;98249.06;104831;1260;60418;-56
2024/02/05 10:17:19;;;;;;;0.00;0.00;;;;;;;2.12;100.00;98248.10;104854;1259;60555;-57
2024/02/05 10:19:46;;;;;;;0.00;0.00;;;;;;;2.08;100.00;98249.14;104707;1260;71963;-58
2024/02/05 10:22:14;;;;;;;0.60;0.10;;;;;;;2.02;100.00;98242.30;104738;1254;67160;-57
2024/02/05 10:24:41;;;;;;;1.30;0.10;;;;;;;2.00;100.00;98244.69;104958;1259;72756;-58
2024/02/05 10:27:15;;;;;;;0.50;0.30;;;;;;;2.00;100.00;98245.03;104702;1260;60997;-57
2024/02/05 10:29:42;;;;;;;1.60;0.30;;;;;;;2.00;100.00;98239.73;105576;1254;60605;-54
2024/02/05 10:32:10;;;;;;;0.50;0.30;;;;;;;2.01;100.00;98228.71;104962;1257;72765;-55
2024/02/05 10:34:37;;;;;;;0.50;0.30;;;;;;;2.03;100.00;98218.55;104882;1260;66625;-57
2024/02/05 10:37:10;;;;;;;0.80;0.50;;;;;;;2.06;100.00;98224.80;104716;1257;72745;-58
2024/02/05 10:39:37;;;;;;;0.90;0.40;;;;;;;2.09;100.00;98240.95;107821;1257;60559;-56
2024/02/05 10:42:05;;;;;;;0.60;0.40;;;;;;;2.12;100.00;98230.41;104729;1255;60357;-58
2024/02/05 10:46:53;;;;;;;0.50;0.20;;;;;;;2.21;100.00;98313.61;102121;1289;601100;-57
2024/02/05 10:49:23;;;;;;;1.10;0.30;;;;;;;2.24;100.00;98294.37;104396;1263;60227;-55
2024/02/05 10:51:50;;;;;;;0.30;0.20;;;;;;;2.28;100.00;98269.77;104596;1261;59579;-58
2024/02/05 10:54:18;;;;;;;0.40;0.30;;;;;;;2.31;100.00;98264.17;104922;1267;74174;-58
2024/02/05 10:56:45;;;;;;;3.50;0.30;;;;;;;2.32;100.00;98254.42;104400;1265;67885;-57
2024/02/05 10:59:13;;;;;;;0.30;0.20;;;;;;;2.31;100.00;98238.14;104442;1262;73262;-54
2024/02/05 11:01:48;;;;;;;0.40;0.40;;;;;;;2.31;100.00;98228.44;104752;1253;215323;-56
2024/02/05 11:04:17;;;;;;;1.20;0.20;;;;;;;2.32;100.00;98220.95;104696;1257;59321;-57
2024/02/05 11:06:46;;;;;;;0.30;0.30;;;;;;;2.33;100.00;98214.52;107153;1260;71048;-56
2024/02/05 11:09:14;;;;;;;0.40;0.30;;;;;;;2.37;100.00;98213.16;104808;1258;65658;-56
2024/02/05 11:11:43;;;;;;;0.30;0.20;;;;;;;2.41;100.00;98226.08;104737;1262;71533;-56
2024/02/05 11:14:10;;;;;;;0.50;0.30;;;;;;;2.46;100.00;98233.52;108738;1256;59359;-58
2024/02/05 11:16:38;;;;;;;0.40;0.30;;;;;;;2.49;100.00;98228.77;108713;1256;58801;-57
2024/02/05 11:19:07;;;;;;;0.30;0.20;;;;;;;2.51;100.00;98227.27;108752;1256;73107;-55
2024/02/05 11:21:44;;;;;;;0.10;0.10;;;;;;;2.54;100.00;98225.75;108866;1256;65971;-55
2024/02/05 11:24:12;;;;;;;1.10;0.10;;;;;;;2.57;100.00;98210.71;108670;1256;72862;-55
2024/02/05 11:26:40;;;;;;;0.30;0.20;;;;;;;2.60;100.00;98211.51;108873;1256;59841;-55
2024/02/05 11:29:07;;;;;;;0.20;0.10;;;;;;;2.64;100.00;98202.49;108741;1256;61931;-55